sensor_id;sensor_type;location;lat;lon;timestamp;pressure;altitude;pressure_sealevel;temperature;humidity
31595;BME280;18200;48.726;8.892;2023-03-22T00:00:36;96610.75;;;23.41;33.20
31595;BME280;18200;48.726;8.892;2023-03-22T00:04:37;96601.75;;;23.53;32.98
31595;BME280;18200;48.726;8.892;2023-03-22T00:08:37;96598.63;;;22.91;34.41
31595;BME280;18200;48.726;8.892;2023-03-22T00:12:38;96590.63;;;23.09;33.90
31595;BME280;18200;48.726;8.892;2023-03-22T00:16:38;96589.06;;;22.58;33.89
31595;BME280;18200;48.726;8.892;2023-03-22T00:20:46;96588.91;;;22.65;34.18
31595;BME280;18200;48.726;8.892;2023-03-22T00:24:46;96595.84;;;22.41;34.70
31595;BME280;18200;48.726;8.892;2023-03-22T00:28:47;96594.56;;;22.58;33.94
31595;BME280;18200;48.726;8.892;2023-03-22T00:32:48;96593.28;;;22.63;33.96
31595;BME280;18200;48.726;8.892;2023-03-22T00:36:48;96595.47;;;22.93;33.86
31595;BME280;18200;48.726;8.892;2023-03-22T00:40:48;96585.72;;;22.67;33.10
31595;BME280;18200;48.726;8.892;2023-03-22T00:44:50;96588.69;;;22.06;34.41
31595;BME280;18200;48.726;8.892;2023-03-22T00:48:50;96588.25;;;22.07;34.55
31595;BME280;18200;48.726;8.892;2023-03-22T00:52:51;96576.16;;;21.92;35.34
31595;BME280;18200;48.726;8.892;2023-03-22T00:56:51;96574.88;;;21.81;35.33
31595;BME280;18200;48.726;8.892;2023-03-22T01:00:52;96561.44;;;22.15;33.79
31595;BME280;18200;48.726;8.892;2023-03-22T01:04:52;96550.91;;;22.01;34.19
31595;BME280;18200;48.726;8.892;2023-03-22T01:08:53;96556.22;;;22.33;34.25
31595;BME280;18200;48.726;8.892;2023-03-22T01:12:54;96553.69;;;22.38;33.80
31595;BME280;18200;48.726;8.892;2023-03-22T01:16:56;96544.16;;;22.18;34.36
31595;BME280;18200;48.726;8.892;2023-03-22T01:20:58;96537.13;;;22.17;34.81
31595;BME280;18200;48.726;8.892;2023-03-22T01:24:58;96536.53;;;21.84;35.00
31595;BME280;18200;48.726;8.892;2023-03-22T01:28:59;96527.94;;;22.11;34.59
31595;BME280;18200;48.726;8.892;2023-03-22T01:33:00;96530.34;;;22.09;34.33
31595;BME280;18200;48.726;8.892;2023-03-22T01:37:01;96521.56;;;21.89;34.53
31595;BME280;18200;48.726;8.892;2023-03-22T01:41:02;96527.28;;;21.66;34.91
31595;BME280;18200;48.726;8.892;2023-03-22T01:49:28;96538.66;;;21.19;34.81
31595;BME280;18200;48.726;8.892;2023-03-22T01:53:34;96535.56;;;21.33;34.25
31595;BME280;18200;48.726;8.892;2023-03-22T01:57:40;96528.25;;;20.82;35.50
31595;BME280;18200;48.726;8.892;2023-03-22T02:17:01;96514.44;;;20.73;35.50
31595;BME280;18200;48.726;8.892;2023-03-22T02:39:11;96492.75;;;20.66;35.74
31595;BME280;18200;48.726;8.892;2023-03-22T02:43:37;96496.69;;;20.65;35.35
31595;BME280;18200;48.726;8.892;2023-03-22T02:47:55;96493.44;;;20.38;35.66
31595;BME280;18200;48.726;8.892;2023-03-22T02:52:11;96501.38;;;20.64;35.33
31595;BME280;18200;48.726;8.892;2023-03-22T02:56:36;96503.34;;;20.48;35.52
31595;BME280;18200;48.726;8.892;2023-03-22T03:00:43;96502.41;;;20.54;35.40
31595;BME280;18200;48.726;8.892;2023-03-22T03:04:47;96503.34;;;20.48;35.42
31595;BME280;18200;48.726;8.892;2023-03-22T03:08:49;96509.22;;;20.62;34.83
31595;BME280;18200;48.726;8.892;2023-03-22T03:12:50;96500.41;;;20.39;35.57
31595;BME280;18200;48.726;8.892;2023-03-22T03:17:07;96512.91;;;19.65;34.92
31595;BME280;18200;48.726;8.892;2023-03-22T03:21:22;96512.72;;;20.11;34.41
31595;BME280;18200;48.726;8.892;2023-03-22T03:25:35;96516.59;;;19.74;35.70
31595;BME280;18200;48.726;8.892;2023-03-22T03:34:11;96511.19;;;18.89;37.71
31595;BME280;18200;48.726;8.892;2023-03-22T03:38:18;96505.59;;;18.96;37.84
31595;BME280;18200;48.726;8.892;2023-03-22T03:42:24;96507.75;;;19.08;36.96
31595;BME280;18200;48.726;8.892;2023-03-22T03:46:26;96512.72;;;18.90;37.52
31595;BME280;18200;48.726;8.892;2023-03-22T03:50:28;96512.00;;;19.09;37.07
31595;BME280;18200;48.726;8.892;2023-03-22T03:54:29;96516.81;;;19.01;37.38
31595;BME280;18200;48.726;8.892;2023-03-22T03:58:30;96511.91;;;18.93;37.31
31595;BME280;18200;48.726;8.892;2023-03-22T04:02:31;96507.91;;;18.74;37.68
31595;BME280;18200;48.726;8.892;2023-03-22T04:06:33;96511.13;;;18.42;38.34
31595;BME280;18200;48.726;8.892;2023-03-22T04:10:36;96504.56;;;18.67;37.25
31595;BME280;18200;48.726;8.892;2023-03-22T04:14:37;96500.03;;;18.30;37.34
31595;BME280;18200;48.726;8.892;2023-03-22T04:18:45;96491.22;;;18.49;37.42
31595;BME280;18200;48.726;8.892;2023-03-22T04:22:47;96491.41;;;18.62;37.21
31595;BME280;18200;48.726;8.892;2023-03-22T04:26:48;96494.97;;;18.82;37.19
31595;BME280;18200;48.726;8.892;2023-03-22T04:30:59;96488.53;;;19.15;36.43
31595;BME280;18200;48.726;8.892;2023-03-22T04:35:20;96487.53;;;18.63;37.07
31595;BME280;18200;48.726;8.892;2023-03-22T04:39:20;96475.41;;;18.40;37.29
31595;BME280;18200;48.726;8.892;2023-03-22T04:43:30;96477.56;;;18.99;37.24
31595;BME280;18200;48.726;8.892;2023-03-22T04:47:36;96479.50;;;18.98;36.96
31595;BME280;18200;48.726;8.892;2023-03-22T04:51:40;96470.31;;;19.12;36.85
31595;BME280;18200;48.726;8.892;2023-03-22T04:56:07;96465.91;;;18.98;36.71
31595;BME280;18200;48.726;8.892;2023-03-22T05:00:08;96463.41;;;19.07;36.70
31595;BME280;18200;48.726;8.892;2023-03-22T05:04:10;96465.50;;;18.77;37.11
31595;BME280;18200;48.726;8.892;2023-03-22T05:08:11;96467.72;;;19.05;36.65
31595;BME280;18200;48.726;8.892;2023-03-22T05:12:14;96468.69;;;18.95;36.59
31595;BME280;18200;48.726;8.892;2023-03-22T05:16:24;96463.41;;;19.07;36.20
31595;BME280;18200;48.726;8.892;2023-03-22T05:20:24;96466.47;;;18.67;36.12
31595;BME280;18200;48.726;8.892;2023-03-22T05:24:44;96464.16;;;17.89;37.59
31595;BME280;18200;48.726;8.892;2023-03-22T05:28:49;96462.16;;;18.42;37.23
31595;BME280;18200;48.726;8.892;2023-03-22T05:33:02;96449.94;;;17.77;37.57
31595;BME280;18200;48.726;8.892;2023-03-22T05:37:05;96454.03;;;18.16;37.50
31595;BME280;18200;48.726;8.892;2023-03-22T05:41:23;96455.19;;;18.41;37.62
31595;BME280;18200;48.726;8.892;2023-03-22T05:45:24;96467.25;;;18.40;36.76
31595;BME280;18200;48.726;8.892;2023-03-22T05:49:36;96460.81;;;18.04;36.25
31595;BME280;18200;48.726;8.892;2023-03-22T05:53:38;96474.69;;;18.36;37.40
31595;BME280;18200;48.726;8.892;2023-03-22T05:57:44;96476.16;;;18.44;36.90
31595;BME280;18200;48.726;8.892;2023-03-22T06:01:46;96472.91;;;18.00;36.67
31595;BME280;18200;48.726;8.892;2023-03-22T06:05:51;96476.09;;;18.48;37.19
31595;BME280;18200;48.726;8.892;2023-03-22T06:09:56;96480.69;;;18.74;37.17
31595;BME280;18200;48.726;8.892;2023-03-22T06:13:57;96481.41;;;19.01;36.53
31595;BME280;18200;48.726;8.892;2023-03-22T06:18:03;96477.28;;;19.13;36.17
31595;BME280;18200;48.726;8.892;2023-03-22T06:22:09;96474.66;;;19.29;35.92
31595;BME280;18200;48.726;8.892;2023-03-22T06:26:11;96486.56;;;19.58;35.92
31595;BME280;18200;48.726;8.892;2023-03-22T06:30:12;96478.75;;;19.41;35.91
31595;BME280;18200;48.726;8.892;2023-03-22T06:34:30;96492.31;;;19.44;35.60
31595;BME280;18200;48.726;8.892;2023-03-22T06:38:31;96493.00;;;19.48;35.80
31595;BME280;18200;48.726;8.892;2023-03-22T06:42:32;96501.22;;;19.64;36.28
31595;BME280;18200;48.726;8.892;2023-03-22T06:46:39;96493.28;;;19.73;35.99
31595;BME280;18200;48.726;8.892;2023-03-22T06:50:48;96490.44;;;19.96;35.86
31595;BME280;18200;48.726;8.892;2023-03-22T06:54:58;96485.34;;;20.14;35.25
31595;BME280;18200;48.726;8.892;2023-03-22T06:58:58;96483.00;;;20.17;35.99
31595;BME280;18200;48.726;8.892;2023-03-22T07:03:02;96483.72;;;20.21;35.54
31595;BME280;18200;48.726;8.892;2023-03-22T07:07:23;96475.78;;;19.90;37.02
31595;BME280;18200;48.726;8.892;2023-03-22T07:11:24;96470.00;;;20.04;36.87
31595;BME280;18200;48.726;8.892;2023-03-22T07:15:31;96464.59;;;20.69;36.26
31595;BME280;18200;48.726;8.892;2023-03-22T07:19:47;96476.47;;;21.23;35.17
31595;BME280;18200;48.726;8.892;2023-03-22T07:23:48;96466.22;;;21.56;35.02
31595;BME280;18200;48.726;8.892;2023-03-22T07:27:51;96461.16;;;21.96;33.51
31595;BME280;18200;48.726;8.892;2023-03-22T07:31:54;96465.00;;;22.61;32.87
31595;BME280;18200;48.726;8.892;2023-03-22T07:36:14;96465.09;;;22.45;33.14
31595;BME280;18200;48.726;8.892;2023-03-22T07:40:15;96459.78;;;22.88;32.28
31595;BME280;18200;48.726;8.892;2023-03-22T07:44:16;96470.97;;;23.71;31.23
31595;BME280;18200;48.726;8.892;2023-03-22T07:48:23;96464.75;;;24.32;31.10
31595;BME280;18200;48.726;8.892;2023-03-22T07:52:31;96469.25;;;24.57;29.77
31595;BME280;18200;48.726;8.892;2023-03-22T07:56:32;96455.53;;;24.66;29.93
31595;BME280;18200;48.726;8.892;2023-03-22T08:00:32;96466.91;;;24.37;30.30
31595;BME280;18200;48.726;8.892;2023-03-22T08:04:53;96473.09;;;23.98;30.95
31595;BME280;18200;48.726;8.892;2023-03-22T08:09:16;96466.88;;;24.28;31.10
31595;BME280;18200;48.726;8.892;2023-03-22T08:13:16;96461.56;;;24.92;30.01
31595;BME280;18200;48.726;8.892;2023-03-22T08:17:18;96456.59;;;24.20;30.96
31595;BME280;18200;48.726;8.892;2023-03-22T08:21:19;96465.94;;;23.70;31.34
31595;BME280;18200;48.726;8.892;2023-03-22T08:25:24;96464.06;;;23.88;31.02
31595;BME280;18200;48.726;8.892;2023-03-22T08:29:26;96470.06;;;23.31;32.72
31595;BME280;18200;48.726;8.892;2023-03-22T08:33:27;96461.06;;;24.75;30.41
31595;BME280;18200;48.726;8.892;2023-03-22T08:37:27;96465.63;;;24.20;30.83
31595;BME280;18200;48.726;8.892;2023-03-22T08:41:28;96458.81;;;24.92;30.10
31595;BME280;18200;48.726;8.892;2023-03-22T08:45:29;96450.84;;;26.35;27.72
31595;BME280;18200;48.726;8.892;2023-03-22T08:49:37;96446.63;;;25.38;29.19
31595;BME280;18200;48.726;8.892;2023-03-22T08:53:46;96468.31;;;24.11;31.88
31595;BME280;18200;48.726;8.892;2023-03-22T08:58:11;96450.03;;;26.44;28.15
31595;BME280;18200;48.726;8.892;2023-03-22T09:02:42;96453.28;;;26.66;27.46
31595;BME280;18200;48.726;8.892;2023-03-22T09:06:42;96458.97;;;25.15;29.32
31595;BME280;18200;48.726;8.892;2023-03-22T09:10:48;96449.88;;;24.60;30.23
31595;BME280;18200;48.726;8.892;2023-03-22T09:14:56;96445.66;;;25.77;28.72
31595;BME280;18200;48.726;8.892;2023-03-22T09:18:56;96437.47;;;28.39;25.42
31595;BME280;18200;48.726;8.892;2023-03-22T09:22:57;96437.06;;;27.83;26.46
31595;BME280;18200;48.726;8.892;2023-03-22T09:26:57;96439.94;;;25.90;27.88
31595;BME280;18200;48.726;8.892;2023-03-22T09:31:00;96426.09;;;26.82;27.36
31595;BME280;18200;48.726;8.892;2023-03-22T09:35:01;96434.69;;;25.41;28.58
31595;BME280;18200;48.726;8.892;2023-03-22T09:39:10;96423.53;;;28.63;26.02
31595;BME280;18200;48.726;8.892;2023-03-22T09:43:14;96427.25;;;28.80;25.82
31595;BME280;18200;48.726;8.892;2023-03-22T09:47:19;96415.81;;;29.53;24.47
31595;BME280;18200;48.726;8.892;2023-03-22T09:51:39;96415.63;;;27.78;27.42
31595;BME280;18200;48.726;8.892;2023-03-22T10:04:45;96384.47;;;29.16;24.73
31595;BME280;18200;48.726;8.892;2023-03-22T10:09:20;96384.19;;;29.91;23.14
31595;BME280;18200;48.726;8.892;2023-03-22T10:13:31;96393.53;;;27.78;25.21
31595;BME280;18200;48.726;8.892;2023-03-22T10:17:34;96378.53;;;28.28;25.15
31595;BME280;18200;48.726;8.892;2023-03-22T10:21:35;96385.50;;;27.94;24.51
31595;BME280;18200;48.726;8.892;2023-03-22T10:25:38;96375.47;;;29.21;22.45
31595;BME280;18200;48.726;8.892;2023-03-22T10:29:41;96395.69;;;29.33;22.20
31595;BME280;18200;48.726;8.892;2023-03-22T10:33:57;96374.59;;;29.86;22.15
31595;BME280;18200;48.726;8.892;2023-03-22T10:38:01;96375.16;;;27.89;23.17
31595;BME280;18200;48.726;8.892;2023-03-22T10:42:11;96371.88;;;28.20;22.71
31595;BME280;18200;48.726;8.892;2023-03-22T10:46:26;96382.22;;;26.13;24.43
31595;BME280;18200;48.726;8.892;2023-03-22T10:50:33;96363.91;;;27.93;23.85
31595;BME280;18200;48.726;8.892;2023-03-22T10:54:35;96355.06;;;28.98;22.94
31595;BME280;18200;48.726;8.892;2023-03-22T10:58:36;96361.94;;;30.11;21.37
31595;BME280;18200;48.726;8.892;2023-03-22T11:02:45;96362.66;;;29.03;22.25
31595;BME280;18200;48.726;8.892;2023-03-22T11:06:51;96374.16;;;27.43;23.52
31595;BME280;18200;48.726;8.892;2023-03-22T11:10:52;96356.44;;;28.48;22.34
31595;BME280;18200;48.726;8.892;2023-03-22T11:14:54;96361.47;;;30.60;20.26
31595;BME280;18200;48.726;8.892;2023-03-22T11:18:56;96361.56;;;28.55;21.54
31595;BME280;18200;48.726;8.892;2023-03-22T11:22:59;96371.66;;;27.59;22.49
31595;BME280;18200;48.726;8.892;2023-03-22T11:27:49;96358.91;;;29.27;20.73
31595;BME280;18200;48.726;8.892;2023-03-22T11:31:23;96361.13;;;28.42;22.09
31595;BME280;18200;48.726;8.892;2023-03-22T11:35:25;96351.06;;;30.50;20.70
31595;BME280;18200;48.726;8.892;2023-03-22T11:39:28;96345.56;;;30.55;20.37
31595;BME280;18200;48.726;8.892;2023-03-22T11:43:39;96356.88;;;27.77;22.09
31595;BME280;18200;48.726;8.892;2023-03-22T11:47:41;96362.75;;;28.14;21.51
31595;BME280;18200;48.726;8.892;2023-03-22T11:51:42;96347.06;;;28.60;20.88
31595;BME280;18200;48.726;8.892;2023-03-22T11:55:44;96333.13;;;30.34;19.71
31595;BME280;18200;48.726;8.892;2023-03-22T12:00:04;96335.09;;;28.49;21.31
31595;BME280;18200;48.726;8.892;2023-03-22T12:04:14;96324.66;;;28.78;21.42
31595;BME280;18200;48.726;8.892;2023-03-22T12:12:47;96322.31;;;28.91;21.55
31595;BME280;18200;48.726;8.892;2023-03-22T12:16:57;96312.56;;;31.61;18.44
31595;BME280;18200;48.726;8.892;2023-03-22T12:21:00;96320.94;;;28.81;21.17
31595;BME280;18200;48.726;8.892;2023-03-22T12:25:01;96312.31;;;30.13;20.69
31595;BME280;18200;48.726;8.892;2023-03-22T12:29:04;96299.50;;;30.75;19.40
31595;BME280;18200;48.726;8.892;2023-03-22T12:33:21;96305.19;;;29.13;20.73
31595;BME280;18200;48.726;8.892;2023-03-22T12:37:26;96308.78;;;31.58;19.29
31595;BME280;18200;48.726;8.892;2023-03-22T12:41:38;96309.28;;;31.62;19.11
31595;BME280;18200;48.726;8.892;2023-03-22T12:45:43;96294.53;;;28.40;21.82
31595;BME280;18200;48.726;8.892;2023-03-22T12:49:51;96291.50;;;30.99;19.46
31595;BME280;18200;48.726;8.892;2023-03-22T12:53:57;96286.38;;;30.70;19.51
31595;BME280;18200;48.726;8.892;2023-03-22T12:57:59;96286.94;;;29.27;20.97
31595;BME280;18200;48.726;8.892;2023-03-22T13:02:08;96283.47;;;31.23;18.39
31595;BME280;18200;48.726;8.892;2023-03-22T13:26:52;96282.88;;;30.27;19.66
31595;BME280;18200;48.726;8.892;2023-03-22T13:30:55;96261.22;;;29.52;20.27
31595;BME280;18200;48.726;8.892;2023-03-22T13:34:56;96255.81;;;30.05;20.50
31595;BME280;18200;48.726;8.892;2023-03-22T13:39:08;96260.31;;;29.97;19.75
31595;BME280;18200;48.726;8.892;2023-03-22T13:44:18;96269.91;;;29.08;20.97
31595;BME280;18200;48.726;8.892;2023-03-22T13:47:45;96250.38;;;28.91;20.62
31595;BME280;18200;48.726;8.892;2023-03-22T13:51:46;96244.22;;;30.54;19.06
31595;BME280;18200;48.726;8.892;2023-03-22T14:00:00;96245.63;;;29.18;20.35
31595;BME280;18200;48.726;8.892;2023-03-22T14:04:06;96231.81;;;29.91;19.94
31595;BME280;18200;48.726;8.892;2023-03-22T14:08:19;96245.06;;;28.42;21.28
31595;BME280;18200;48.726;8.892;2023-03-22T14:12:24;96229.13;;;29.65;19.91
31595;BME280;18200;48.726;8.892;2023-03-22T14:20:34;96221.06;;;29.31;21.44
31595;BME280;18200;48.726;8.892;2023-03-22T14:24:35;96219.97;;;29.54;21.15
31595;BME280;18200;48.726;8.892;2023-03-22T14:28:37;96222.41;;;31.56;18.97
31595;BME280;18200;48.726;8.892;2023-03-22T14:32:42;96219.88;;;31.36;19.75
31595;BME280;18200;48.726;8.892;2023-03-22T14:36:45;96218.78;;;30.56;19.84
31595;BME280;18200;48.726;8.892;2023-03-22T14:40:49;96217.19;;;30.38;20.02
31595;BME280;18200;48.726;8.892;2023-03-22T14:44:55;96212.84;;;28.59;21.76
31595;BME280;18200;48.726;8.892;2023-03-22T14:48:58;96210.59;;;29.46;21.51
31595;BME280;18200;48.726;8.892;2023-03-22T14:52:59;96203.28;;;29.74;21.51
31595;BME280;18200;48.726;8.892;2023-03-22T14:57:00;96202.41;;;30.80;20.63
31595;BME280;18200;48.726;8.892;2023-03-22T15:01:02;96201.63;;;30.57;20.68
31595;BME280;18200;48.726;8.892;2023-03-22T15:05:20;96202.41;;;30.80;19.90
31595;BME280;18200;48.726;8.892;2023-03-22T15:09:22;96204.28;;;30.30;19.98
31595;BME280;18200;48.726;8.892;2023-03-22T15:13:24;96189.50;;;31.93;18.77
31595;BME280;18200;48.726;8.892;2023-03-22T15:17:26;96186.06;;;33.99;17.76
31595;BME280;18200;48.726;8.892;2023-03-22T15:21:29;96180.06;;;32.24;18.89
31595;BME280;18200;48.726;8.892;2023-03-22T15:25:32;96181.25;;;30.88;20.46
31595;BME280;18200;48.726;8.892;2023-03-22T15:29:32;96179.19;;;30.72;20.40
31595;BME280;18200;48.726;8.892;2023-03-22T15:33:36;96178.94;;;31.75;19.78
31595;BME280;18200;48.726;8.892;2023-03-22T15:37:38;96179.94;;;32.52;19.56
31595;BME280;18200;48.726;8.892;2023-03-22T15:41:41;96173.41;;;32.38;19.32
31595;BME280;18200;48.726;8.892;2023-03-22T15:50:16;96188.84;;;30.93;19.95
31595;BME280;18200;48.726;8.892;2023-03-22T15:54:27;96187.56;;;31.55;19.57
31595;BME280;18200;48.726;8.892;2023-03-22T15:58:32;96186.47;;;31.91;19.80
31595;BME280;18200;48.726;8.892;2023-03-22T16:02:33;96184.19;;;32.99;18.30
31595;BME280;18200;48.726;8.892;2023-03-22T16:06:34;96192.34;;;31.66;19.14
31595;BME280;18200;48.726;8.892;2023-03-22T16:10:37;96191.84;;;31.28;20.45
31595;BME280;18200;48.726;8.892;2023-03-22T16:14:37;96181.66;;;32.96;18.50
31595;BME280;18200;48.726;8.892;2023-03-22T16:18:38;96185.75;;;32.89;18.86
31595;BME280;18200;48.726;8.892;2023-03-22T16:22:40;96192.25;;;32.04;19.58
31595;BME280;18200;48.726;8.892;2023-03-22T16:26:41;96197.94;;;31.05;20.56
31595;BME280;18200;48.726;8.892;2023-03-22T16:30:43;96183.34;;;32.23;19.94
31595;BME280;18200;48.726;8.892;2023-03-22T16:34:43;96199.44;;;31.50;19.96
31595;BME280;18200;48.726;8.892;2023-03-22T16:38:44;96193.28;;;32.64;19.47
31595;BME280;18200;48.726;8.892;2023-03-22T16:42:46;96202.59;;;32.09;19.89
31595;BME280;18200;48.726;8.892;2023-03-22T16:46:46;96186.72;;;31.99;20.35
31595;BME280;18200;48.726;8.892;2023-03-22T16:50:47;96188.53;;;31.74;20.38
31595;BME280;18200;48.726;8.892;2023-03-22T16:54:51;96188.22;;;32.00;20.35
31595;BME280;18200;48.726;8.892;2023-03-22T16:58:51;96189.84;;;31.29;21.16
31595;BME280;18200;48.726;8.892;2023-03-22T17:02:54;96185.97;;;31.98;20.03
31595;BME280;18200;48.726;8.892;2023-03-22T17:06:57;96189.94;;;32.20;19.96
31595;BME280;18200;48.726;8.892;2023-03-22T17:10:57;96196.41;;;31.54;20.63
31595;BME280;18200;48.726;8.892;2023-03-22T17:14:58;96193.41;;;31.52;21.45
31595;BME280;18200;48.726;8.892;2023-03-22T17:18:59;96194.38;;;31.32;20.99
31595;BME280;18200;48.726;8.892;2023-03-22T17:23:00;96182.00;;;31.66;20.91
31595;BME280;18200;48.726;8.892;2023-03-22T17:27:02;96189.81;;;30.90;21.60
31595;BME280;18200;48.726;8.892;2023-03-22T17:31:04;96189.31;;;30.81;21.42
31595;BME280;18200;48.726;8.892;2023-03-22T17:35:06;96190.84;;;31.04;23.08
31595;BME280;18200;48.726;8.892;2023-03-22T17:39:06;96200.59;;;30.60;22.96
31595;BME280;18200;48.726;8.892;2023-03-22T17:43:07;96197.19;;;29.07;24.54
31595;BME280;18200;48.726;8.892;2023-03-22T17:47:08;96200.34;;;28.89;24.67
31595;BME280;18200;48.726;8.892;2023-03-22T17:51:10;96199.25;;;28.81;25.79
31595;BME280;18200;48.726;8.892;2023-03-22T17:55:20;96207.44;;;29.22;25.53
31595;BME280;18200;48.726;8.892;2023-03-22T17:59:21;96205.59;;;29.81;24.83
31595;BME280;18200;48.726;8.892;2023-03-22T18:03:21;96207.88;;;29.88;24.87
31595;BME280;18200;48.726;8.892;2023-03-22T18:07:21;96216.00;;;29.24;24.67
31595;BME280;18200;48.726;8.892;2023-03-22T18:11:22;96214.91;;;29.15;25.82
31595;BME280;18200;48.726;8.892;2023-03-22T18:15:23;96219.84;;;29.37;24.85
31595;BME280;18200;48.726;8.892;2023-03-22T18:19:23;96219.56;;;29.30;24.92
31595;BME280;18200;48.726;8.892;2023-03-22T18:23:24;96224.78;;;28.96;25.13
31595;BME280;18200;48.726;8.892;2023-03-22T18:27:24;96224.78;;;28.96;25.12
31595;BME280;18200;48.726;8.892;2023-03-22T18:31:25;96228.88;;;28.55;26.17
31595;BME280;18200;48.726;8.892;2023-03-22T18:35:26;96222.31;;;28.53;25.45
31595;BME280;18200;48.726;8.892;2023-03-22T18:39:26;96223.53;;;28.26;26.58
31595;BME280;18200;48.726;8.892;2023-03-22T18:43:26;96235.63;;;28.54;26.23
31595;BME280;18200;48.726;8.892;2023-03-22T18:47:27;96237.84;;;28.50;26.37
31595;BME280;18200;48.726;8.892;2023-03-22T18:51:27;96236.44;;;28.34;26.71
31595;BME280;18200;48.726;8.892;2023-03-22T18:55:28;96227.66;;;28.16;26.77
31595;BME280;18200;48.726;8.892;2023-03-22T18:59:28;96242.25;;;26.88;28.04
31595;BME280;18200;48.726;8.892;2023-03-22T19:03:32;96242.25;;;27.03;27.99
31595;BME280;18200;48.726;8.892;2023-03-22T19:07:35;96251.88;;;26.55;28.93
31595;BME280;18200;48.726;8.892;2023-03-22T19:11:37;96239.41;;;26.83;28.37
31595;BME280;18200;48.726;8.892;2023-03-22T19:15:37;96243.78;;;26.89;27.88
31595;BME280;18200;48.726;8.892;2023-03-22T19:19:38;96244.09;;;26.53;28.83
31595;BME280;18200;48.726;8.892;2023-03-22T19:23:38;96241.09;;;26.80;28.70
31595;BME280;18200;48.726;8.892;2023-03-22T19:27:39;96247.16;;;26.70;28.57
31595;BME280;18200;48.726;8.892;2023-03-22T19:31:39;96237.88;;;25.96;29.39
31595;BME280;18200;48.726;8.892;2023-03-22T19:35:44;96240.44;;;26.47;28.35
31595;BME280;18200;48.726;8.892;2023-03-22T19:39:44;96242.56;;;26.67;28.28
31595;BME280;18200;48.726;8.892;2023-03-22T19:43:45;96240.63;;;26.82;27.68
31595;BME280;18200;48.726;8.892;2023-03-22T19:47:45;96234.78;;;26.03;29.40
31595;BME280;18200;48.726;8.892;2023-03-22T19:51:47;96237.25;;;26.49;28.94
31595;BME280;18200;48.726;8.892;2023-03-22T19:55:48;96237.94;;;26.35;29.18
31595;BME280;18200;48.726;8.892;2023-03-22T19:59:48;96237.47;;;26.60;28.49
31595;BME280;18200;48.726;8.892;2023-03-22T20:03:49;96232.63;;;26.84;27.83
31595;BME280;18200;48.726;8.892;2023-03-22T20:07:50;96230.41;;;26.59;28.45
31595;BME280;18200;48.726;8.892;2023-03-22T20:11:50;96232.50;;;26.64;28.07
31595;BME280;18200;48.726;8.892;2023-03-22T20:15:51;96232.56;;;25.69;29.50
31595;BME280;18200;48.726;8.892;2023-03-22T20:19:51;96238.72;;;25.88;29.69
31595;BME280;18200;48.726;8.892;2023-03-22T20:23:53;96235.78;;;25.68;29.59
31595;BME280;18200;48.726;8.892;2023-03-22T20:27:53;96234.03;;;26.03;29.70
31595;BME280;18200;48.726;8.892;2023-03-22T20:31:54;96236.19;;;26.08;29.34
31595;BME280;18200;48.726;8.892;2023-03-22T20:35:57;96233.44;;;25.99;29.30
31595;BME280;18200;48.726;8.892;2023-03-22T20:39:58;96222.38;;;26.32;28.81
31595;BME280;18200;48.726;8.892;2023-03-22T20:43:58;96230.06;;;26.04;29.65
31595;BME280;18200;48.726;8.892;2023-03-22T20:47:59;96232.00;;;25.89;29.95
31595;BME280;18200;48.726;8.892;2023-03-22T20:52:00;96235.63;;;24.33;31.91
31595;BME280;18200;48.726;8.892;2023-03-22T20:56:00;96240.72;;;25.13;30.57
31595;BME280;18200;48.726;8.892;2023-03-22T21:00:01;96245.09;;;24.50;31.67
31595;BME280;18200;48.726;8.892;2023-03-22T21:04:01;96250.84;;;24.98;31.13
31595;BME280;18200;48.726;8.892;2023-03-22T21:08:02;96244.19;;;25.22;30.94
31595;BME280;18200;48.726;8.892;2023-03-22T21:12:03;96239.81;;;25.07;31.07
31595;BME280;18200;48.726;8.892;2023-03-22T21:16:08;96237.59;;;24.87;31.06
31595;BME280;18200;48.726;8.892;2023-03-22T21:20:10;96245.63;;;24.00;32.79
31595;BME280;18200;48.726;8.892;2023-03-22T21:24:11;96247.22;;;24.83;31.98
31595;BME280;18200;48.726;8.892;2023-03-22T21:28:11;96247.03;;;24.95;31.11
31595;BME280;18200;48.726;8.892;2023-03-22T21:32:12;96250.78;;;25.16;30.39
31595;BME280;18200;48.726;8.892;2023-03-22T21:36:13;96241.66;;;24.92;31.63
31595;BME280;18200;48.726;8.892;2023-03-22T21:40:13;96243.81;;;24.97;30.85
31595;BME280;18200;48.726;8.892;2023-03-22T21:44:13;96248.66;;;25.11;30.78
31595;BME280;18200;48.726;8.892;2023-03-22T21:48:14;96246.88;;;24.62;31.12
31595;BME280;18200;48.726;8.892;2023-03-22T21:52:16;96251.47;;;24.65;31.42
31595;BME280;18200;48.726;8.892;2023-03-22T21:56:16;96250.78;;;25.16;30.51
31595;BME280;18200;48.726;8.892;2023-03-22T22:00:17;96254.06;;;24.87;31.74
31595;BME280;18200;48.726;8.892;2023-03-22T22:04:23;96256.34;;;25.39;30.60
31595;BME280;18200;48.726;8.892;2023-03-22T22:08:29;96251.31;;;25.38;30.57
31595;BME280;18200;48.726;8.892;2023-03-22T22:12:29;96253.41;;;25.10;30.48
31595;BME280;18200;48.726;8.892;2023-03-22T22:16:30;96255.84;;;25.59;30.08
31595;BME280;18200;48.726;8.892;2023-03-22T22:20:31;96266.41;;;25.01;30.91
31595;BME280;18200;48.726;8.892;2023-03-22T22:24:32;96264.84;;;25.18;30.54
31595;BME280;18200;48.726;8.892;2023-03-22T22:28:34;96270.50;;;25.14;30.76
31595;BME280;18200;48.726;8.892;2023-03-22T22:32:38;96263.63;;;25.61;29.31
31595;BME280;18200;48.726;8.892;2023-03-22T22:36:38;96262.13;;;25.83;28.87
31595;BME280;18200;48.726;8.892;2023-03-22T22:40:44;96262.84;;;25.93;28.56
31595;BME280;18200;48.726;8.892;2023-03-22T22:44:44;96258.31;;;26.13;28.07
31595;BME280;18200;48.726;8.892;2023-03-22T22:48:45;96248.56;;;25.47;30.12
31595;BME280;18200;48.726;8.892;2023-03-22T22:52:45;96250.84;;;25.39;28.22
31595;BME280;18200;48.726;8.892;2023-03-22T22:56:46;96236.03;;;25.46;29.62
31595;BME280;18200;48.726;8.892;2023-03-22T23:00:46;96246.84;;;25.82;29.14